createdAt,value
2023-04-02T00:00:40.057Z,1015.25
2023-04-02T00:01:40.465Z,1015.23
2023-04-02T00:02:40.773Z,1015.26
2023-04-02T00:03:41.162Z,1015.32
2023-04-02T00:04:41.479Z,1015.34
2023-04-02T00:05:41.851Z,1015.37
2023-04-02T00:06:42.135Z,1015.40
2023-04-02T00:07:42.505Z,1015.39
2023-04-02T00:08:42.839Z,1015.38
2023-04-02T00:09:43.199Z,1015.43
2023-04-02T00:10:43.584Z,1015.48
2023-04-02T00:11:43.912Z,1015.41
2023-04-02T00:12:44.268Z,1015.46
2023-04-02T00:13:44.601Z,1015.51
2023-04-02T00:14:44.954Z,1015.54
2023-04-02T00:15:45.347Z,1015.46
2023-04-02T00:16:45.717Z,1015.51
2023-04-02T00:17:46.077Z,1015.51
2023-04-02T00:18:46.387Z,1015.50
2023-04-02T00:19:46.763Z,1015.54
2023-04-02T00:20:47.125Z,1015.61
2023-04-02T00:21:47.494Z,1015.62
2023-04-02T00:22:47.848Z,1015.62
2023-04-02T00:23:48.189Z,1015.63
2023-04-02T00:24:48.564Z,1015.62
2023-04-02T00:25:48.927Z,1015.69
2023-04-02T00:26:49.279Z,1015.74
2023-04-02T00:27:49.624Z,1015.70
2023-04-02T00:28:49.989Z,1015.72
2023-04-02T00:29:50.365Z,1015.78
2023-04-02T00:30:50.742Z,1015.67
2023-04-02T00:31:51.094Z,1015.77
2023-04-02T00:32:51.455Z,1015.78
2023-04-02T00:33:51.769Z,1015.77
2023-04-02T00:34:52.114Z,1015.80
2023-04-02T00:35:52.533Z,1015.82
2023-04-02T00:36:52.842Z,1015.85
2023-04-02T00:37:53.193Z,1015.85
2023-04-02T00:38:53.570Z,1015.79
2023-04-02T00:39:53.882Z,1015.88
2023-04-02T00:40:54.281Z,1015.96
2023-04-02T00:41:54.590Z,1015.92
2023-04-02T00:42:54.944Z,1016.01
2023-04-02T00:43:55.298Z,1016.00
2023-04-02T00:44:55.664Z,1016.03
2023-04-02T00:45:56.102Z,1016.06
2023-04-02T00:46:56.415Z,1016.02
2023-04-02T00:47:56.825Z,1016.05
2023-04-02T00:48:57.090Z,1016.09
2023-04-02T00:49:57.457Z,1016.07
2023-04-02T00:50:57.835Z,1016.09
2023-04-02T00:51:58.179Z,1016.11
2023-04-02T00:52:58.529Z,1016.22
2023-04-02T00:53:58.913Z,1016.20
2023-04-02T00:54:59.227Z,1016.16
2023-04-02T00:55:59.601Z,1016.19
2023-04-02T00:56:59.970Z,1016.25
2023-04-02T00:58:00.350Z,1016.23
2023-04-02T00:59:00.601Z,1016.24
2023-04-02T01:00:00.974Z,1016.26
2023-04-02T01:01:01.371Z,1016.32
2023-04-02T01:02:01.721Z,1016.26
2023-04-02T01:03:02.099Z,1016.29
2023-04-02T01:04:02.385Z,1016.32
2023-04-02T01:05:02.872Z,1016.30
2023-04-02T01:06:03.096Z,1016.36
2023-04-02T01:07:03.445Z,1016.35
2023-04-02T01:08:03.807Z,1016.35
2023-04-02T01:09:04.241Z,1016.40
2023-04-02T01:10:04.536Z,1016.36
2023-04-02T01:11:04.887Z,1016.41
2023-04-02T01:12:05.213Z,1016.43
2023-04-02T01:13:05.561Z,1016.37
2023-04-02T01:14:06.029Z,1016.41
2023-04-02T01:15:06.315Z,1016.48
2023-04-02T01:16:06.654Z,1016.42
2023-04-02T01:17:06.990Z,1016.43
2023-04-02T01:18:07.450Z,1016.39
2023-04-02T01:19:07.698Z,1016.45
2023-04-02T01:20:08.075Z,1016.42
2023-04-02T01:21:08.463Z,1016.51
2023-04-02T01:22:08.776Z,1016.50
2023-04-02T01:23:09.125Z,1016.47
2023-04-02T01:24:09.505Z,1016.50
2023-04-02T01:25:09.880Z,1016.55
2023-04-02T01:26:10.222Z,1016.55
2023-04-02T01:27:10.536Z,1016.56
2023-04-02T01:28:10.911Z,1016.55
2023-04-02T01:29:11.268Z,1016.63
2023-04-02T01:30:11.636Z,1016.66
2023-04-02T01:31:12.028Z,1016.57
2023-04-02T01:32:12.367Z,1016.63
2023-04-02T01:33:12.726Z,1016.66
2023-04-02T01:34:13.076Z,1016.66
2023-04-02T01:35:13.481Z,1016.70
2023-04-02T01:36:13.862Z,1016.74
2023-04-02T01:37:14.154Z,1016.70
2023-04-02T01:38:14.501Z,1016.73
2023-04-02T01:39:14.858Z,1016.75
2023-04-02T01:40:15.209Z,1016.69
2023-04-02T01:41:15.561Z,1016.75
2023-04-02T01:42:15.932Z,1016.75
2023-04-02T01:43:16.271Z,1016.79
2023-04-02T01:44:16.651Z,1016.81
2023-04-02T01:45:16.973Z,1016.82
2023-04-02T01:46:17.397Z,1016.78
2023-04-02T01:47:17.691Z,1016.81
2023-04-02T01:48:18.039Z,1016.83
2023-04-02T01:49:18.402Z,1016.85
2023-04-02T01:50:18.756Z,1016.85
2023-04-02T01:51:19.145Z,1016.81
2023-04-02T01:52:19.476Z,1016.92
2023-04-02T01:53:19.833Z,1016.87
2023-04-02T01:54:20.183Z,1016.88
2023-04-02T01:55:20.541Z,1016.91
2023-04-02T01:56:20.901Z,1016.99
2023-04-02T01:57:21.473Z,1016.98
2023-04-02T01:58:21.586Z,1017.05
2023-04-02T01:59:21.938Z,1017.05
2023-04-02T02:00:22.335Z,1017.03
2023-04-02T02:01:22.783Z,1017.07
2023-04-02T02:02:23.107Z,1017.12
2023-04-02T02:03:23.428Z,1017.10
2023-04-02T02:04:23.724Z,1017.15
2023-04-02T02:05:24.091Z,1017.13
2023-04-02T02:06:24.446Z,1017.09
2023-04-02T02:07:24.787Z,1017.14
2023-04-02T02:08:25.145Z,1017.20
2023-04-02T02:09:25.591Z,1017.24
2023-04-02T02:10:25.887Z,1017.26
2023-04-02T02:11:26.262Z,1017.16
2023-04-02T02:12:26.570Z,1017.15
2023-04-02T02:13:26.937Z,1017.27
2023-04-02T02:14:27.304Z,1017.30
2023-04-02T02:15:27.643Z,1017.27
2023-04-02T02:16:28.045Z,1017.31
2023-04-02T02:17:28.391Z,1017.27
2023-04-02T02:18:28.685Z,1017.33
2023-04-02T02:19:29.066Z,1017.23
2023-04-02T02:20:29.420Z,1017.32
2023-04-02T02:21:29.812Z,1017.20
2023-04-02T02:22:30.126Z,1017.34
2023-04-02T02:23:30.489Z,1017.28
2023-04-02T02:24:30.857Z,1017.30
2023-04-02T02:25:31.236Z,1017.33
2023-04-02T02:26:31.568Z,1017.38
2023-04-02T02:27:31.896Z,1017.35
2023-04-02T02:28:32.311Z,1017.38
2023-04-02T02:29:32.640Z,1017.40
2023-04-02T02:30:32.996Z,1017.43
2023-04-02T02:31:33.405Z,1017.45
2023-04-02T02:32:33.719Z,1017.44
2023-04-02T02:33:34.047Z,1017.49
2023-04-02T02:34:34.426Z,1017.48
2023-04-02T02:35:35.269Z,1017.54
2023-04-02T02:36:35.160Z,1017.57
2023-04-02T02:37:35.478Z,1017.54
2023-04-02T02:38:35.848Z,1017.61
2023-04-02T02:39:36.267Z,1017.61
2023-04-02T02:40:36.556Z,1017.60
2023-04-02T02:41:36.998Z,1017.65
2023-04-02T02:42:37.278Z,1017.63
2023-04-02T02:43:37.665Z,1017.65
2023-04-02T02:44:38.024Z,1017.63
2023-04-02T02:45:38.409Z,1017.60
2023-04-02T02:46:38.743Z,1017.69
2023-04-02T02:47:39.097Z,1017.66
2023-04-02T02:48:39.376Z,1017.70
2023-04-02T02:49:39.748Z,1017.71
2023-04-02T02:50:40.108Z,1017.72
2023-04-02T02:51:40.482Z,1017.69
2023-04-02T02:52:40.803Z,1017.74
2023-04-02T02:53:41.159Z,1017.80
2023-04-02T02:54:41.540Z,1017.78
2023-04-02T02:55:41.921Z,1017.84
2023-04-02T02:56:42.262Z,1017.76
2023-04-02T02:57:42.573Z,1017.80
2023-04-02T02:58:42.968Z,1017.84
2023-04-02T02:59:43.296Z,1017.94
2023-04-02T03:00:43.624Z,1017.94
2023-04-02T03:01:44.027Z,1017.90
2023-04-02T03:02:44.470Z,1017.95
2023-04-02T03:03:44.906Z,1017.91
2023-04-02T03:04:44.997Z,1017.97
2023-04-02T03:05:45.369Z,1017.95
2023-04-02T03:06:45.752Z,1017.97
2023-04-02T03:07:46.067Z,1018.00
2023-04-02T03:08:46.469Z,1017.99
2023-04-02T03:09:46.768Z,1018.05
2023-04-02T03:10:47.140Z,1018.09
2023-04-02T03:11:47.516Z,1018.12
2023-04-02T03:12:47.828Z,1018.10
2023-04-02T03:13:48.190Z,1018.06
2023-04-02T03:14:48.547Z,1018.11
2023-04-02T03:15:48.928Z,1018.15
2023-04-02T03:16:49.280Z,1018.18
2023-04-02T03:17:49.697Z,1018.18
2023-04-02T03:18:49.991Z,1018.16
2023-04-02T03:19:50.355Z,1018.24
2023-04-02T03:20:50.751Z,1018.29
2023-04-02T03:21:51.122Z,1018.24
2023-04-02T03:22:51.426Z,1018.31
2023-04-02T03:23:51.787Z,1018.33
2023-04-02T03:24:52.153Z,1018.31
2023-04-02T03:25:52.519Z,1018.33
2023-04-02T03:26:52.894Z,1018.35
2023-04-02T03:27:53.235Z,1018.38
2023-04-02T03:28:53.632Z,1018.37
2023-04-02T03:29:53.954Z,1018.43
2023-04-02T03:30:54.331Z,1018.45
2023-04-02T03:31:54.687Z,1018.45
2023-04-02T03:32:55.170Z,1018.45
2023-04-02T03:33:55.411Z,1018.43
2023-04-02T03:34:55.764Z,1018.45
2023-04-02T03:35:56.186Z,1018.50
2023-04-02T03:36:56.516Z,1018.46
2023-04-02T03:37:56.836Z,1018.51
2023-04-02T03:38:57.195Z,1018.57
2023-04-02T03:39:57.551Z,1018.62
2023-04-02T03:40:57.922Z,1018.58
2023-04-02T03:41:58.341Z,1018.58
2023-04-02T03:42:58.631Z,1018.59
2023-04-02T03:43:58.978Z,1018.58
2023-04-02T03:44:59.335Z,1018.72
2023-04-02T03:45:59.686Z,1018.69
2023-04-02T03:47:00.112Z,1018.68
2023-04-02T03:48:00.438Z,1018.73
2023-04-02T03:49:00.731Z,1018.69
2023-04-02T03:50:01.119Z,1018.75
2023-04-02T03:51:01.502Z,1018.80
2023-04-02T03:52:01.824Z,1018.83
2023-04-02T03:53:02.167Z,1018.79
2023-04-02T03:54:02.530Z,1018.81
2023-04-02T03:55:02.884Z,1018.83
2023-04-02T03:56:03.270Z,1018.88
2023-04-02T03:57:03.650Z,1018.83
2023-04-02T03:58:03.957Z,1018.89
2023-04-02T03:59:04.313Z,1018.96
2023-04-02T04:00:04.650Z,1018.99
2023-04-02T04:01:04.994Z,1018.99
2023-04-02T04:02:05.402Z,1019.08
2023-04-02T04:03:05.760Z,1019.04
2023-04-02T04:04:06.062Z,1019.11
2023-04-02T04:05:06.391Z,1019.13
2023-04-02T04:06:06.745Z,1019.11
2023-04-02T04:07:07.122Z,1019.00
2023-04-02T04:08:07.490Z,1019.10
2023-04-02T04:09:07.832Z,1019.10
2023-04-02T04:10:08.197Z,1019.16
2023-04-02T04:11:08.599Z,1019.13
2023-04-02T04:12:08.923Z,1019.20
2023-04-02T04:13:09.250Z,1019.19
2023-04-02T04:14:09.622Z,1019.21
2023-04-02T04:15:09.996Z,1019.18
2023-04-02T04:16:10.365Z,1019.27
2023-04-02T04:17:10.750Z,1019.21
2023-04-02T04:18:10.810Z,1019.28
2023-04-02T04:19:10.969Z,1019.26
2023-04-02T04:20:11.123Z,1019.29
2023-04-02T04:21:11.423Z,1019.33
2023-04-02T04:22:11.880Z,1019.33
2023-04-02T04:23:12.071Z,1019.35
2023-04-02T04:24:12.370Z,1019.35
2023-04-02T04:25:12.751Z,1019.36
2023-04-02T04:26:12.986Z,1019.38
2023-04-02T04:27:13.303Z,1019.39
2023-04-02T04:28:13.560Z,1019.42
2023-04-02T04:29:13.868Z,1019.44
2023-04-02T04:30:14.190Z,1019.46
2023-04-02T04:31:14.323Z,1019.47
2023-04-02T04:32:14.651Z,1019.49
2023-04-02T04:33:14.817Z,1019.50
2023-04-02T04:34:15.082Z,1019.50
2023-04-02T04:35:15.351Z,1019.50
2023-04-02T04:36:15.667Z,1019.54
2023-04-02T04:37:15.966Z,1019.60
2023-04-02T04:38:16.107Z,1019.60
2023-04-02T04:39:16.378Z,1019.64
2023-04-02T04:40:16.663Z,1019.57
2023-04-02T04:41:16.956Z,1019.59
2023-04-02T04:42:17.287Z,1019.69
2023-04-02T04:43:17.556Z,1019.67
2023-04-02T04:44:17.865Z,1019.69
2023-04-02T04:45:18.134Z,1019.71
2023-04-02T04:46:18.515Z,1019.69
2023-04-02T04:47:18.789Z,1019.71
2023-04-02T04:48:19.036Z,1019.75
2023-04-02T04:49:19.316Z,1019.73
2023-04-02T04:50:19.475Z,1019.75
2023-04-02T04:51:19.651Z,1019.78
2023-04-02T04:52:19.827Z,1019.85
2023-04-02T04:53:19.991Z,1019.87
2023-04-02T04:54:20.154Z,1019.92
2023-04-02T04:55:20.336Z,1019.88
2023-04-02T04:56:20.514Z,1019.92
2023-04-02T04:57:20.686Z,1019.94
2023-04-02T04:58:20.828Z,1020.00
2023-04-02T04:59:20.977Z,1020.00
2023-04-02T05:00:21.294Z,1020.05
2023-04-02T05:01:21.633Z,1020.05
2023-04-02T05:02:21.773Z,1020.06
2023-04-02T05:03:21.938Z,1020.08
2023-04-02T05:04:22.107Z,1020.10
2023-04-02T05:05:22.275Z,1020.07
2023-04-02T05:06:22.536Z,1020.08
2023-04-02T05:07:22.775Z,1020.16
2023-04-02T05:08:22.840Z,1020.19
2023-04-02T05:09:22.949Z,1020.20
2023-04-02T05:10:23.217Z,1020.22
2023-04-02T05:11:23.410Z,1020.22
2023-04-02T05:12:23.606Z,1020.29
2023-04-02T05:13:23.753Z,1020.26
2023-04-02T05:14:24.052Z,1020.31
2023-04-02T05:15:24.232Z,1020.32
2023-04-02T05:16:24.496Z,1020.34
2023-04-02T05:17:24.597Z,1020.34
2023-04-02T05:18:24.724Z,1020.39
2023-04-02T05:19:24.913Z,1020.36
2023-04-02T05:20:25.112Z,1020.37
2023-04-02T05:21:25.265Z,1020.42
2023-04-02T05:22:25.457Z,1020.43
2023-04-02T05:23:25.614Z,1020.45
2023-04-02T05:24:25.779Z,1020.48
2023-04-02T05:25:25.956Z,1020.50
2023-04-02T05:26:26.118Z,1020.50
2023-04-02T05:27:26.348Z,1020.50
2023-04-02T05:28:26.467Z,1020.56
2023-04-02T05:29:26.683Z,1020.52
2023-04-02T05:30:26.825Z,1020.51
2023-04-02T05:31:27.168Z,1020.55
2023-04-02T05:32:27.277Z,1020.51
2023-04-02T05:33:27.385Z,1020.52
2023-04-02T05:34:27.672Z,1020.56
2023-04-02T05:35:27.968Z,1020.52
2023-04-02T05:36:28.154Z,1020.54
2023-04-02T05:37:28.358Z,1020.53
2023-04-02T05:38:28.522Z,1020.59
2023-04-02T05:39:28.701Z,1020.61
2023-04-02T05:40:28.868Z,1020.56
2023-04-02T05:41:29.070Z,1020.61
2023-04-02T05:42:29.370Z,1020.61
2023-04-02T05:43:29.529Z,1020.63
2023-04-02T05:44:29.850Z,1020.67
2023-04-02T05:45:30.032Z,1020.74
2023-04-02T05:46:30.366Z,1020.68
2023-04-02T05:47:30.547Z,1020.73
2023-04-02T05:48:30.767Z,1020.77
2023-04-02T05:49:30.960Z,1020.79
2023-04-02T05:50:31.173Z,1020.77
2023-04-02T05:51:31.315Z,1020.80
2023-04-02T05:52:31.553Z,1020.77
2023-04-02T05:53:31.793Z,1020.82
2023-04-02T05:54:31.968Z,1020.79
2023-04-02T05:55:32.197Z,1020.78
2023-04-02T05:56:32.344Z,1020.84
2023-04-02T05:57:44.503Z,1020.85
2023-04-02T05:58:36.718Z,1020.82
2023-04-02T05:59:32.929Z,1020.84
2023-04-02T06:00:33.078Z,1020.89
2023-04-02T06:01:33.417Z,1020.91
2023-04-02T06:02:33.664Z,1020.91
2023-04-02T06:03:33.829Z,1020.91
2023-04-02T06:04:34.042Z,1020.89
2023-04-02T06:05:34.585Z,1020.94
2023-04-02T06:06:34.513Z,1020.95
2023-04-02T06:07:34.627Z,1020.96
2023-04-02T06:08:34.781Z,1021.04
2023-04-02T06:09:35.223Z,1021.02
2023-04-02T06:10:35.280Z,1021.06
2023-04-02T06:11:35.464Z,1021.06
2023-04-02T06:12:35.675Z,1021.07
2023-04-02T06:13:35.977Z,1021.10
2023-04-02T06:14:36.124Z,1021.11
2023-04-02T06:15:36.551Z,1021.15
2023-04-02T06:16:36.656Z,1021.14
2023-04-02T06:17:36.824Z,1021.14
2023-04-02T06:18:37.071Z,1021.15
2023-04-02T06:19:37.395Z,1021.15
2023-04-02T06:20:37.460Z,1021.20
2023-04-02T06:21:37.739Z,1021.23
2023-04-02T06:22:37.949Z,1021.22
2023-04-02T06:23:38.246Z,1021.26
2023-04-02T06:24:38.519Z,1021.31
2023-04-02T06:25:38.715Z,1021.31
2023-04-02T06:26:38.892Z,1021.29
2023-04-02T06:27:39.097Z,1021.39
2023-04-02T06:28:39.265Z,1021.35
2023-04-02T06:29:39.442Z,1021.42
2023-04-02T06:30:39.681Z,1021.39
2023-04-02T06:31:39.828Z,1021.38
2023-04-02T06:32:40.072Z,1021.49
2023-04-02T06:33:40.166Z,1021.51
2023-04-02T06:34:40.465Z,1021.47
2023-04-02T06:35:40.682Z,1021.54
2023-04-02T06:36:40.956Z,1021.58
2023-04-02T06:37:41.196Z,1021.51
2023-04-02T06:38:41.317Z,1021.54
2023-04-02T06:39:41.493Z,1021.58
2023-04-02T06:40:41.677Z,1021.54
2023-04-02T06:41:41.857Z,1021.54
2023-04-02T06:42:42.065Z,1021.53
2023-04-02T06:43:42.337Z,1021.61
2023-04-02T06:44:42.685Z,1021.56
2023-04-02T06:45:42.905Z,1021.55
2023-04-02T06:46:42.983Z,1021.54
2023-04-02T06:47:43.217Z,1021.52
2023-04-02T06:48:43.349Z,1021.58
2023-04-02T06:49:43.546Z,1021.58
2023-04-02T06:50:43.725Z,1021.55
2023-04-02T06:51:43.901Z,1021.61
2023-04-02T06:52:44.109Z,1021.57
2023-04-02T06:53:44.271Z,1021.64
2023-04-02T06:54:44.437Z,1021.60
2023-04-02T06:55:44.612Z,1021.60
2023-04-02T06:56:44.770Z,1021.60
2023-04-02T06:57:44.980Z,1021.70
2023-04-02T06:58:45.263Z,1021.63
2023-04-02T06:59:45.423Z,1021.68
2023-04-02T07:00:45.602Z,1021.72
2023-04-02T07:01:45.812Z,1021.76
2023-04-02T07:02:45.998Z,1021.72
2023-04-02T07:03:46.116Z,1021.71
2023-04-02T07:04:46.310Z,1021.74
2023-04-02T07:05:46.470Z,1021.78
2023-04-02T07:06:46.660Z,1021.82
2023-04-02T07:07:46.863Z,1021.83
2023-04-02T07:08:47.044Z,1021.85
2023-04-02T07:09:47.259Z,1021.96
2023-04-02T07:10:47.425Z,1021.90
2023-04-02T07:11:47.714Z,1021.97
2023-04-02T07:12:47.909Z,1021.99
2023-04-02T07:13:48.082Z,1022.02
2023-04-02T07:14:48.287Z,1021.97
2023-04-02T07:15:48.527Z,1022.06
2023-04-02T07:16:48.632Z,1022.07
2023-04-02T07:17:49.046Z,1022.05
2023-04-02T07:18:49.141Z,1022.10
2023-04-02T07:19:49.335Z,1022.15
2023-04-02T07:20:49.478Z,1022.16
2023-04-02T07:21:49.658Z,1022.21
2023-04-02T07:22:49.871Z,1022.21
2023-04-02T07:23:50.040Z,1022.12
2023-04-02T07:24:50.214Z,1022.20
2023-04-02T07:25:50.402Z,1022.25
2023-04-02T07:26:50.570Z,1022.22
2023-04-02T07:27:50.790Z,1022.23
2023-04-02T07:28:51.099Z,1022.20
2023-04-02T07:29:51.354Z,1022.28
2023-04-02T07:30:51.537Z,1022.31
2023-04-02T07:31:51.793Z,1022.34
2023-04-02T07:32:52.118Z,1022.36
2023-04-02T07:33:52.372Z,1022.39
2023-04-02T07:34:52.651Z,1022.41
2023-04-02T07:35:52.953Z,1022.36
2023-04-02T07:36:53.260Z,1022.36
2023-04-02T07:37:53.437Z,1022.32
2023-04-02T07:38:53.585Z,1022.44
2023-04-02T07:39:53.779Z,1022.45
2023-04-02T07:40:54.064Z,1022.46
2023-04-02T07:41:54.310Z,1022.41
2023-04-02T07:42:54.569Z,1022.47
2023-04-02T07:43:54.905Z,1022.40
2023-04-02T07:44:55.050Z,1022.56
2023-04-02T07:45:55.271Z,1022.50
2023-04-02T07:46:55.590Z,1022.49
2023-04-02T07:47:55.817Z,1022.58
2023-04-02T07:48:56.062Z,1022.56
2023-04-02T07:49:56.200Z,1022.58
2023-04-02T07:50:56.381Z,1022.63
2023-04-02T07:51:56.685Z,1022.60
2023-04-02T07:52:56.952Z,1022.57
2023-04-02T07:53:57.070Z,1022.60
2023-04-02T07:54:57.254Z,1022.65
2023-04-02T07:55:57.490Z,1022.63
2023-04-02T07:56:57.777Z,1022.61
2023-04-02T07:57:57.970Z,1022.61
2023-04-02T07:58:58.085Z,1022.64
2023-04-02T07:59:58.295Z,1022.64
2023-04-02T08:00:58.582Z,1022.68
2023-04-02T08:01:58.913Z,1022.69
2023-04-02T08:02:59.146Z,1022.71
2023-04-02T08:03:59.380Z,1022.68
2023-04-02T08:04:59.552Z,1022.72
2023-04-02T08:05:59.749Z,1022.73
2023-04-02T08:06:59.911Z,1022.79
2023-04-02T08:08:00.124Z,1022.78
2023-04-02T08:09:00.411Z,1022.80
2023-04-02T08:10:01.120Z,1022.86
2023-04-02T08:11:00.776Z,1022.84
2023-04-02T08:12:01.086Z,1022.88
2023-04-02T08:13:01.284Z,1022.86
2023-04-02T08:14:02.370Z,1022.88
2023-04-02T08:15:01.623Z,1022.90
2023-04-02T08:16:01.799Z,1022.94
2023-04-02T08:17:02.195Z,1022.93
2023-04-02T08:18:02.191Z,1022.97
2023-04-02T08:19:02.298Z,1022.92
2023-04-02T08:20:02.483Z,1022.94
2023-04-02T08:21:02.663Z,1023.04
2023-04-02T08:22:02.850Z,1023.00
2023-04-02T08:23:03.017Z,1023.01
2023-04-02T08:24:03.160Z,1023.06
2023-04-02T08:25:03.473Z,1023.08
2023-04-02T08:26:03.650Z,1023.01
2023-04-02T08:27:03.830Z,1023.03
2023-04-02T08:28:04.098Z,1023.07
2023-04-02T08:29:04.332Z,1023.08
2023-04-02T08:30:04.487Z,1023.14
2023-04-02T08:31:05.039Z,1023.16
2023-04-02T08:32:04.985Z,1023.21
2023-04-02T08:33:05.441Z,1023.14
2023-04-02T08:34:05.335Z,1023.24
2023-04-02T08:35:05.516Z,1023.17
2023-04-02T08:36:05.740Z,1023.16
2023-04-02T08:37:05.863Z,1023.21
2023-04-02T08:38:06.184Z,1023.21
2023-04-02T08:39:06.363Z,1023.17
2023-04-02T08:40:06.583Z,1023.21
2023-04-02T08:41:06.748Z,1023.24
2023-04-02T08:42:06.968Z,1023.33
2023-04-02T08:43:07.126Z,1023.28
2023-04-02T08:44:07.466Z,1023.23
2023-04-02T08:45:22.967Z,1023.28
2023-04-02T08:46:07.895Z,1023.31
2023-04-02T08:47:07.990Z,1023.26
2023-04-02T08:48:08.219Z,1023.31
2023-04-02T08:49:08.308Z,1023.39
2023-04-02T08:50:08.491Z,1023.38
2023-04-02T08:51:08.673Z,1023.44
2023-04-02T08:52:08.868Z,1023.46
2023-04-02T08:53:09.089Z,1023.50
2023-04-02T08:54:09.239Z,1023.50
2023-04-02T08:55:09.406Z,1023.49
2023-04-02T08:56:09.627Z,1023.54
2023-04-02T08:57:09.919Z,1023.50
2023-04-02T08:58:10.094Z,1023.57
2023-04-02T08:59:10.238Z,1023.50
2023-04-02T09:00:10.415Z,1023.48
2023-04-02T09:01:10.633Z,1023.47
2023-04-02T09:02:10.816Z,1023.54
2023-04-02T09:03:11.219Z,1023.54
2023-04-02T09:04:11.164Z,1023.54
2023-04-02T09:05:11.386Z,1023.56
2023-04-02T09:06:11.553Z,1023.54
2023-04-02T09:07:12.659Z,1023.59
2023-04-02T09:08:12.009Z,1023.51
2023-04-02T09:09:12.336Z,1023.53
2023-04-02T09:10:12.478Z,1023.60
2023-04-02T09:11:12.646Z,1023.61
2023-04-02T09:12:12.818Z,1023.63
2023-04-02T09:13:13.062Z,1023.64
2023-04-02T09:14:13.323Z,1023.68
2023-04-02T09:15:13.479Z,1023.69
2023-04-02T09:16:13.686Z,1023.72
2023-04-02T09:17:13.956Z,1023.62
2023-04-02T09:18:14.195Z,1023.66
2023-04-02T09:19:14.371Z,1023.70
2023-04-02T09:20:14.525Z,1023.72
2023-04-02T09:21:14.708Z,1023.74
2023-04-02T09:22:14.889Z,1023.75
2023-04-02T09:23:15.091Z,1023.78
2023-04-02T09:24:15.251Z,1023.77
2023-04-02T09:25:15.492Z,1023.86
2023-04-02T09:26:15.732Z,1023.90
2023-04-02T09:27:15.910Z,1023.90
2023-04-02T09:28:16.109Z,1023.87
2023-04-02T09:29:16.384Z,1023.79
2023-04-02T09:30:16.649Z,1023.92
2023-04-02T09:31:16.903Z,1023.82
2023-04-02T09:32:17.078Z,1023.82
2023-04-02T09:33:17.374Z,1023.93
2023-04-02T09:34:17.642Z,1024.00
2023-04-02T09:35:39.078Z,1023.97
2023-04-02T09:36:18.037Z,1023.91
2023-04-02T09:37:18.294Z,1023.95
2023-04-02T09:38:18.622Z,1023.94
2023-04-02T09:39:18.786Z,1023.93
2023-04-02T09:40:18.963Z,1023.98
2023-04-02T09:41:19.133Z,1023.96
2023-04-02T09:42:19.332Z,1024.00
2023-04-02T09:43:19.653Z,1023.98
2023-04-02T09:44:19.845Z,1023.94
2023-04-02T09:45:20.123Z,1023.91
2023-04-02T09:46:20.345Z,1024.01
2023-04-02T09:47:20.456Z,1023.94
2023-04-02T09:48:20.684Z,1024.04
2023-04-02T09:49:20.793Z,1024.03
2023-04-02T09:50:20.974Z,1024.03
2023-04-02T09:51:21.173Z,1024.03
2023-04-02T09:52:21.475Z,1024.07
2023-04-02T09:53:21.673Z,1024.09
2023-04-02T09:54:21.828Z,1024.07
2023-04-02T09:55:22.032Z,1024.06
2023-04-02T09:56:22.175Z,1024.13
2023-04-02T09:57:22.446Z,1024.13
2023-04-02T09:58:22.674Z,1024.15
2023-04-02T09:59:22.836Z,1024.15
2023-04-02T10:00:31.661Z,1024.09
2023-04-02T10:01:23.357Z,1024.10
2023-04-02T10:02:23.571Z,1024.15
2023-04-02T10:03:23.706Z,1024.08
2023-04-02T10:04:26.250Z,1024.05
2023-04-02T10:05:39.372Z,1024.13
2023-04-02T10:06:24.271Z,1024.11
2023-04-02T10:07:24.454Z,1024.08
2023-04-02T10:08:24.645Z,1024.04
2023-04-02T10:09:24.823Z,1024.03
2023-04-02T10:10:26.298Z,1024.07
2023-04-02T10:11:28.811Z,1024.08
2023-04-02T10:12:25.377Z,1024.14
2023-04-02T10:13:25.576Z,1024.13
2023-04-02T10:14:25.757Z,1024.11
2023-04-02T10:15:25.903Z,1024.12
2023-04-02T10:16:27.043Z,1024.14
2023-04-02T10:17:26.304Z,1024.16
2023-04-02T10:18:26.468Z,1024.06
2023-04-02T10:19:26.677Z,1024.19
2023-04-02T10:20:26.821Z,1024.17
2023-04-02T10:21:27.040Z,1024.17
2023-04-02T10:22:27.253Z,1024.27
2023-04-02T10:23:27.462Z,1024.26
2023-04-02T10:24:27.626Z,1024.28
2023-04-02T10:25:27.839Z,1024.24
2023-04-02T10:26:28.004Z,1024.21
2023-04-02T10:27:28.197Z,1024.34
2023-04-02T10:28:28.416Z,1024.41
2023-04-02T10:29:28.547Z,1024.26
2023-04-02T10:30:28.844Z,1024.31
2023-04-02T10:31:28.937Z,1024.40
2023-04-02T10:32:29.164Z,1024.44
2023-04-02T10:33:29.330Z,1024.30
2023-04-02T10:34:29.508Z,1024.32
2023-04-02T10:35:29.684Z,1024.41
2023-04-02T10:36:29.854Z,1024.44
2023-04-02T10:37:30.051Z,1024.45
2023-04-02T10:38:30.327Z,1024.35
2023-04-02T10:39:30.432Z,1024.37
2023-04-02T10:40:30.612Z,1024.41
2023-04-02T10:41:30.802Z,1024.30
2023-04-02T10:42:30.977Z,1024.39
2023-04-02T10:43:31.217Z,1024.56
2023-04-02T10:44:31.360Z,1024.52
2023-04-02T10:45:31.564Z,1024.50
2023-04-02T10:46:31.801Z,1024.50
2023-04-02T10:47:31.965Z,1024.60
2023-04-02T10:48:32.219Z,1024.60
2023-04-02T10:49:32.384Z,1024.58
2023-04-02T10:50:32.558Z,1024.60
2023-04-02T10:51:32.767Z,1024.55
2023-04-02T10:52:32.931Z,1024.60
2023-04-02T10:53:33.174Z,1024.66
2023-04-02T10:54:33.341Z,1024.64
2023-04-02T10:55:33.954Z,1024.59
2023-04-02T10:56:44.147Z,1024.66
2023-04-02T10:57:33.960Z,1024.60
2023-04-02T10:58:34.168Z,1024.63
2023-04-02T10:59:34.306Z,1024.59
2023-04-02T11:00:34.534Z,1024.54
2023-04-02T11:01:34.786Z,1024.48
2023-04-02T11:02:34.966Z,1024.44
2023-04-02T11:03:35.162Z,1024.51
2023-04-02T11:04:35.263Z,1024.57
2023-04-02T11:05:35.660Z,1024.60
2023-04-02T11:06:35.590Z,1024.61
2023-04-02T11:07:35.795Z,1024.60
2023-04-02T11:08:36.003Z,1024.60
2023-04-02T11:09:36.172Z,1024.64
2023-04-02T11:10:36.379Z,1024.56
2023-04-02T11:11:36.596Z,1024.52
2023-04-02T11:12:41.404Z,1024.60
2023-04-02T11:13:37.001Z,1024.61
2023-04-02T11:14:37.152Z,1024.62
2023-04-02T11:15:37.548Z,1024.59
2023-04-02T11:16:41.260Z,1024.64
2023-04-02T11:17:37.796Z,1024.50
2023-04-02T11:18:37.972Z,1024.67
2023-04-02T11:19:38.101Z,1024.58
2023-04-02T11:20:38.314Z,1024.67
2023-04-02T11:21:51.116Z,1024.56
2023-04-02T11:22:38.653Z,1024.64
2023-04-02T11:23:38.830Z,1024.62
2023-04-02T11:24:38.993Z,1024.85
2023-04-02T11:25:39.207Z,1024.80
2023-04-02T11:26:39.389Z,1024.83
2023-04-02T11:27:39.559Z,1024.83
2023-04-02T11:28:39.749Z,1024.89
2023-04-02T11:29:39.953Z,1024.82
2023-04-02T11:30:40.143Z,1024.87
2023-04-02T11:31:40.361Z,1024.89
2023-04-02T11:32:40.660Z,1024.88
2023-04-02T11:33:44.253Z,1024.91
2023-04-02T11:34:40.922Z,1024.76
2023-04-02T11:35:41.167Z,1024.89
2023-04-02T11:36:41.312Z,1024.82
2023-04-02T11:37:41.484Z,1024.90
2023-04-02T11:38:41.704Z,1024.93
2023-04-02T11:39:41.853Z,1024.87
2023-04-02T11:40:42.064Z,1024.94
2023-04-02T11:41:42.225Z,1024.95
2023-04-02T11:42:42.449Z,1024.98
2023-04-02T11:43:42.613Z,1024.92
2023-04-02T11:44:42.791Z,1025.05
2023-04-02T11:45:52.048Z,1024.98
2023-04-02T11:46:43.225Z,1024.98
2023-04-02T11:47:43.414Z,1024.99
2023-04-02T11:48:43.606Z,1025.06
2023-04-02T11:49:43.748Z,1025.06
2023-04-02T11:50:43.932Z,1025.14
2023-04-02T11:51:44.121Z,1025.10
2023-04-02T11:52:44.315Z,1025.13
2023-04-02T11:53:44.544Z,1025.14
2023-04-02T11:54:44.732Z,1025.15
2023-04-02T11:55:44.940Z,1025.11
2023-04-02T11:56:45.114Z,1025.13
2023-04-02T11:57:45.313Z,1025.08
2023-04-02T11:58:45.539Z,1025.09
2023-04-02T11:59:45.723Z,1025.02
2023-04-02T12:00:45.881Z,1025.04
2023-04-02T12:01:46.087Z,1025.13
2023-04-02T12:02:46.401Z,1025.12
2023-04-02T12:03:46.605Z,1025.15
2023-04-02T12:04:46.684Z,1025.15
2023-04-02T12:05:46.945Z,1025.11
2023-04-02T12:06:47.362Z,1025.18
2023-04-02T12:07:47.499Z,1025.12
2023-04-02T12:08:57.062Z,1025.23